sensor_id;sensor_type;location;lat;lon;timestamp;pressure;altitude;pressure_sealevel;temperature;humidity
69402;BME280;56589;51.992;5.924;2024-01-30T00:00:36;102080.69;;;6.36;83.96
69402;BME280;56589;51.992;5.924;2024-01-30T00:03:02;102068.63;;;6.32;83.99
69402;BME280;56589;51.992;5.924;2024-01-30T00:05:28;102063.47;;;6.28;84.28
69402;BME280;56589;51.992;5.924;2024-01-30T00:07:54;102071.41;;;6.25;84.00
69402;BME280;56589;51.992;5.924;2024-01-30T00:10:20;102061.88;;;6.24;84.11
69402;BME280;56589;51.992;5.924;2024-01-30T00:12:46;102071.47;;;6.22;83.96
69402;BME280;56589;51.992;5.924;2024-01-30T00:15:11;102066.28;;;6.21;84.34
69402;BME280;56589;51.992;5.924;2024-01-30T00:17:40;102080.28;;;6.18;84.26
69402;BME280;56589;51.992;5.924;2024-01-30T00:20:06;102079.44;;;6.16;84.46
69402;BME280;56589;51.992;5.924;2024-01-30T00:22:33;102071.72;;;6.13;84.23
69402;BME280;56589;51.992;5.924;2024-01-30T00:24:58;102068.31;;;6.10;84.30
69402;BME280;56589;51.992;5.924;2024-01-30T00:27:25;102066.66;;;6.07;84.34
69402;BME280;56589;51.992;5.924;2024-01-30T00:29:51;102071.06;;;6.04;84.21
69402;BME280;56589;51.992;5.924;2024-01-30T00:32:17;102068.53;;;6.00;84.06
69402;BME280;56589;51.992;5.924;2024-01-30T00:34:45;102067.69;;;6.00;84.22
69402;BME280;56589;51.992;5.924;2024-01-30T00:37:11;102072.13;;;5.96;84.39
69402;BME280;56589;51.992;5.924;2024-01-30T00:39:37;102066.09;;;5.93;84.38
69402;BME280;56589;51.992;5.924;2024-01-30T00:42:03;102067.00;;;5.92;83.96
69402;BME280;56589;51.992;5.924;2024-01-30T00:44:29;102070.56;;;5.89;84.01
69402;BME280;56589;51.992;5.924;2024-01-30T00:46:55;102073.22;;;5.86;84.50
69402;BME280;56589;51.992;5.924;2024-01-30T00:49:21;102069.75;;;5.86;84.26
69402;BME280;56589;51.992;5.924;2024-01-30T00:51:49;102066.34;;;5.84;84.05
69402;BME280;56589;51.992;5.924;2024-01-30T00:54:15;102062.03;;;5.81;84.07
69402;BME280;56589;51.992;5.924;2024-01-30T00:56:40;102062.09;;;5.80;84.06
69402;BME280;56589;51.992;5.924;2024-01-30T00:59:06;102055.22;;;5.77;84.17
69402;BME280;56589;51.992;5.924;2024-01-30T01:01:32;102055.22;;;5.77;84.50
69402;BME280;56589;51.992;5.924;2024-01-30T01:03:58;102061.31;;;5.76;84.80
69402;BME280;56589;51.992;5.924;2024-01-30T01:06:23;102057.84;;;5.76;84.42
69402;BME280;56589;51.992;5.924;2024-01-30T01:08:52;102064.78;;;5.75;84.64
69402;BME280;56589;51.992;5.924;2024-01-30T01:11:17;102064.78;;;5.75;84.91
69402;BME280;56589;51.992;5.924;2024-01-30T01:13:43;102061.38;;;5.73;84.86
69402;BME280;56589;51.992;5.924;2024-01-30T01:16:09;102049.25;;;5.72;84.85
69402;BME280;56589;51.992;5.924;2024-01-30T01:18:35;102053.56;;;5.73;84.96
69402;BME280;56589;51.992;5.924;2024-01-30T01:21:00;102049.25;;;5.72;85.30
69402;BME280;56589;51.992;5.924;2024-01-30T01:23:26;102048.38;;;5.71;85.25
69402;BME280;56589;51.992;5.924;2024-01-30T01:25:54;102049.25;;;5.72;85.55
69402;BME280;56589;51.992;5.924;2024-01-30T01:28:20;102052.75;;;5.71;85.07
69402;BME280;56589;51.992;5.924;2024-01-30T01:30:46;102053.66;;;5.70;85.33
69402;BME280;56589;51.992;5.924;2024-01-30T01:33:12;102046.72;;;5.67;84.88
69402;BME280;56589;51.992;5.924;2024-01-30T01:35:38;102049.38;;;5.66;84.92
69402;BME280;56589;51.992;5.924;2024-01-30T01:38:03;102045.06;;;5.65;85.34
69402;BME280;56589;51.992;5.924;2024-01-30T01:40:29;102042.47;;;5.65;85.37
69402;BME280;56589;51.992;5.924;2024-01-30T01:42:58;102040.72;;;5.65;85.00
69402;BME280;56589;51.992;5.924;2024-01-30T01:45:23;102038.09;;;5.65;85.25
69402;BME280;56589;51.992;5.924;2024-01-30T01:47:51;102041.56;;;5.66;85.07
69402;BME280;56589;51.992;5.924;2024-01-30T01:50:18;102043.38;;;5.64;85.08
69402;BME280;56589;51.992;5.924;2024-01-30T01:52:47;102035.56;;;5.62;85.04
69402;BME280;56589;51.992;5.924;2024-01-30T01:55:14;102039.91;;;5.63;85.38
69402;BME280;56589;51.992;5.924;2024-01-30T01:57:41;102037.31;;;5.62;85.47
69402;BME280;56589;51.992;5.924;2024-01-30T02:00:11;102037.41;;;5.59;85.16
69402;BME280;56589;51.992;5.924;2024-01-30T02:02:39;102026.13;;;5.58;85.83
69402;BME280;56589;51.992;5.924;2024-01-30T02:05:05;102033.94;;;5.57;85.52
69402;BME280;56589;51.992;5.924;2024-01-30T02:07:31;102030.50;;;5.56;85.51
69402;BME280;56589;51.992;5.924;2024-01-30T02:09:57;102029.63;;;5.56;85.63
69402;BME280;56589;51.992;5.924;2024-01-30T02:12:23;102028.78;;;5.55;85.94
69402;BME280;56589;51.992;5.924;2024-01-30T02:14:49;102014.00;;;5.56;85.51
69402;BME280;56589;51.992;5.924;2024-01-30T02:17:18;102028.75;;;5.57;86.02
69402;BME280;56589;51.992;5.924;2024-01-30T02:19:44;102022.72;;;5.55;85.85
69402;BME280;56589;51.992;5.924;2024-01-30T02:22:12;102029.63;;;5.56;85.85
69402;BME280;56589;51.992;5.924;2024-01-30T02:24:38;102030.50;;;5.56;86.08
69402;BME280;56589;51.992;5.924;2024-01-30T02:27:04;102023.50;;;5.58;86.10
69402;BME280;56589;51.992;5.924;2024-01-30T02:29:30;102024.31;;;5.60;86.38
69402;BME280;56589;51.992;5.924;2024-01-30T02:31:56;102024.28;;;5.62;86.25
69402;BME280;56589;51.992;5.924;2024-01-30T02:34:21;102018.19;;;5.63;86.53
69402;BME280;56589;51.992;5.924;2024-01-30T02:36:47;102019.06;;;5.63;86.07
69402;BME280;56589;51.992;5.924;2024-01-30T02:39:15;102022.53;;;5.62;85.99
69402;BME280;56589;51.992;5.924;2024-01-30T02:41:41;102011.25;;;5.62;85.85
69402;BME280;56589;51.992;5.924;2024-01-30T02:44:07;102013.06;;;5.60;85.88
69402;BME280;56589;51.992;5.924;2024-01-30T02:46:33;102006.13;;;5.59;85.94
69402;BME280;56589;51.992;5.924;2024-01-30T02:48:59;102008.69;;;5.60;86.11
69402;BME280;56589;51.992;5.924;2024-01-30T02:51:24;101998.28;;;5.60;85.92
69402;BME280;56589;51.992;5.924;2024-01-30T02:53:50;101998.31;;;5.59;86.13
69402;BME280;56589;51.992;5.924;2024-01-30T02:56:18;102001.78;;;5.59;85.77
69402;BME280;56589;51.992;5.924;2024-01-30T02:58:44;101994.78;;;5.61;86.18
69402;BME280;56589;51.992;5.924;2024-01-30T03:01:10;101993.03;;;5.62;85.78
69402;BME280;56589;51.992;5.924;2024-01-30T03:03:36;101995.63;;;5.63;86.02
69402;BME280;56589;51.992;5.924;2024-01-30T03:06:02;101997.31;;;5.64;85.82
69402;BME280;56589;51.992;5.924;2024-01-30T03:08:28;101989.50;;;5.64;86.22
69402;BME280;56589;51.992;5.924;2024-01-30T03:10:53;102002.47;;;5.66;85.92
69402;BME280;56589;51.992;5.924;2024-01-30T03:13:22;101990.34;;;5.65;85.82
69402;BME280;56589;51.992;5.924;2024-01-30T03:15:48;101985.97;;;5.67;86.11
69402;BME280;56589;51.992;5.924;2024-01-30T03:18:13;101982.50;;;5.66;86.06
69402;BME280;56589;51.992;5.924;2024-01-30T03:20:39;101985.09;;;5.66;85.78
69402;BME280;56589;51.992;5.924;2024-01-30T03:23:05;101983.34;;;5.67;85.90
69402;BME280;56589;51.992;5.924;2024-01-30T03:25:30;101982.44;;;5.68;85.77
69402;BME280;56589;51.992;5.924;2024-01-30T03:27:56;101978.13;;;5.67;85.23
69402;BME280;56589;51.992;5.924;2024-01-30T03:30:25;101975.56;;;5.65;85.54
69402;BME280;56589;51.992;5.924;2024-01-30T03:32:50;101972.97;;;5.65;85.16
69402;BME280;56589;51.992;5.924;2024-01-30T03:35:16;101967.81;;;5.64;85.33
69402;BME280;56589;51.992;5.924;2024-01-30T03:37:42;101955.63;;;5.64;85.63
69402;BME280;56589;51.992;5.924;2024-01-30T03:40:08;101967.75;;;5.65;85.48
69402;BME280;56589;51.992;5.924;2024-01-30T03:42:35;101958.25;;;5.64;85.17
69402;BME280;56589;51.992;5.924;2024-01-30T03:45:01;101960.84;;;5.64;85.58
69402;BME280;56589;51.992;5.924;2024-01-30T03:47:30;101959.94;;;5.65;85.67
69402;BME280;56589;51.992;5.924;2024-01-30T03:49:56;101946.06;;;5.65;85.28
69402;BME280;56589;51.992;5.924;2024-01-30T03:52:21;101953.03;;;5.64;85.78
69402;BME280;56589;51.992;5.924;2024-01-30T03:54:47;101950.41;;;5.64;85.86
69402;BME280;56589;51.992;5.924;2024-01-30T03:57:13;101956.47;;;5.65;85.42
69402;BME280;56589;51.992;5.924;2024-01-30T03:59:41;101952.97;;;5.66;85.97
69402;BME280;56589;51.992;5.924;2024-01-30T04:02:07;101956.47;;;5.65;85.38
69402;BME280;56589;51.992;5.924;2024-01-30T04:04:35;101946.97;;;5.64;85.74
69402;BME280;56589;51.992;5.924;2024-01-30T04:07:01;101948.72;;;5.63;85.86
69402;BME280;56589;51.992;5.924;2024-01-30T04:09:27;101955.66;;;5.63;85.92
69402;BME280;56589;51.992;5.924;2024-01-30T04:11:53;101950.44;;;5.63;85.84
69402;BME280;56589;51.992;5.924;2024-01-30T04:14:18;101963.47;;;5.63;85.41
69402;BME280;56589;51.992;5.924;2024-01-30T04:16:44;101956.59;;;5.60;85.52
69402;BME280;56589;51.992;5.924;2024-01-30T04:19:10;101963.50;;;5.61;85.57
69402;BME280;56589;51.992;5.924;2024-01-30T04:21:38;101960.00;;;5.62;85.55
69402;BME280;56589;51.992;5.924;2024-01-30T04:24:05;101963.44;;;5.64;85.93
69402;BME280;56589;51.992;5.924;2024-01-30T04:26:31;101963.41;;;5.66;85.92
69402;BME280;56589;51.992;5.924;2024-01-30T04:28:57;101959.84;;;5.68;86.03
69402;BME280;56589;51.992;5.924;2024-01-30T04:31:22;101958.09;;;5.70;85.99
69402;BME280;56589;51.992;5.924;2024-01-30T04:33:48;101957.13;;;5.73;86.02
69402;BME280;56589;51.992;5.924;2024-01-30T04:36:14;101956.22;;;5.76;85.58
69402;BME280;56589;51.992;5.924;2024-01-30T04:38:42;101960.50;;;5.78;85.64
69402;BME280;56589;51.992;5.924;2024-01-30T04:41:08;101956.13;;;5.79;85.92
69402;BME280;56589;51.992;5.924;2024-01-30T04:43:34;101951.78;;;5.79;85.75
69402;BME280;56589;51.992;5.924;2024-01-30T04:45:59;101952.69;;;5.78;85.64
69402;BME280;56589;51.992;5.924;2024-01-30T04:48:25;101949.16;;;5.79;85.93
69402;BME280;56589;51.992;5.924;2024-01-30T04:50:51;101949.13;;;5.81;85.84
69402;BME280;56589;51.992;5.924;2024-01-30T04:53:17;101946.50;;;5.81;85.57
69402;BME280;56589;51.992;5.924;2024-01-30T04:55:45;101940.44;;;5.80;85.60
69402;BME280;56589;51.992;5.924;2024-01-30T04:58:11;101940.44;;;5.82;85.45
69402;BME280;56589;51.992;5.924;2024-01-30T05:00:36;101939.53;;;5.83;85.80
69402;BME280;56589;51.992;5.924;2024-01-30T05:03:02;101936.06;;;5.82;85.89
69402;BME280;56589;51.992;5.924;2024-01-30T05:05:28;101936.94;;;5.83;85.49
69402;BME280;56589;51.992;5.924;2024-01-30T05:07:54;101935.22;;;5.82;85.73
69402;BME280;56589;51.992;5.924;2024-01-30T05:10:20;101930.88;;;5.82;85.71
69402;BME280;56589;51.992;5.924;2024-01-30T05:12:48;101929.13;;;5.81;85.75
69402;BME280;56589;51.992;5.924;2024-01-30T05:15:14;101931.66;;;5.84;85.92
69402;BME280;56589;51.992;5.924;2024-01-30T05:17:40;101928.22;;;5.84;85.53
69402;BME280;56589;51.992;5.924;2024-01-30T05:20:07;101925.56;;;5.85;85.50
69402;BME280;56589;51.992;5.924;2024-01-30T05:22:33;101921.25;;;5.84;85.54
69402;BME280;56589;51.992;5.924;2024-01-30T05:24:59;101927.31;;;5.85;85.89
69402;BME280;56589;51.992;5.924;2024-01-30T05:27:25;101916.88;;;5.85;85.90
69402;BME280;56589;51.992;5.924;2024-01-30T05:29:53;101928.97;;;5.87;85.50
69402;BME280;56589;51.992;5.924;2024-01-30T05:32:19;101934.97;;;5.91;85.78
69402;BME280;56589;51.992;5.924;2024-01-30T05:34:45;101929.69;;;5.94;85.66
69402;BME280;56589;51.992;5.924;2024-01-30T05:37:11;101927.84;;;5.97;85.72
69402;BME280;56589;51.992;5.924;2024-01-30T05:39:36;101935.59;;;5.99;85.76
69402;BME280;56589;51.992;5.924;2024-01-30T05:42:03;101938.19;;;6.00;85.62
69402;BME280;56589;51.992;5.924;2024-01-30T05:44:29;101935.59;;;6.00;85.65
69402;BME280;56589;51.992;5.924;2024-01-30T05:46:57;101939.91;;;6.02;86.03
69402;BME280;56589;51.992;5.924;2024-01-30T05:49:23;101940.66;;;6.05;86.01
69402;BME280;56589;51.992;5.924;2024-01-30T05:51:49;101925.84;;;6.07;86.15
69402;BME280;56589;51.992;5.924;2024-01-30T05:54:15;101930.06;;;6.11;85.91
69402;BME280;56589;51.992;5.924;2024-01-30T05:56:40;101928.19;;;6.16;86.13
69402;BME280;56589;51.992;5.924;2024-01-30T05:59:06;101928.97;;;6.20;85.88
69402;BME280;56589;51.992;5.924;2024-01-30T06:01:32;101929.72;;;6.23;85.81
69402;BME280;56589;51.992;5.924;2024-01-30T06:04:00;101933.97;;;6.27;85.81
69402;BME280;56589;51.992;5.924;2024-01-30T06:06:26;101925.19;;;6.30;85.92
69402;BME280;56589;51.992;5.924;2024-01-30T06:08:52;101932.97;;;6.33;85.61
69402;BME280;56589;51.992;5.924;2024-01-30T06:11:18;101932.97;;;6.33;85.67
69402;BME280;56589;51.992;5.924;2024-01-30T06:13:43;101941.59;;;6.35;85.80
69402;BME280;56589;51.992;5.924;2024-01-30T06:16:10;101941.59;;;6.35;85.72
69402;BME280;56589;51.992;5.924;2024-01-30T06:18:35;101942.44;;;6.36;85.47
69402;BME280;56589;51.992;5.924;2024-01-30T06:21:04;101940.66;;;6.38;86.00
69402;BME280;56589;51.992;5.924;2024-01-30T06:23:30;101934.50;;;6.40;85.56
69402;BME280;56589;51.992;5.924;2024-01-30T06:25:56;101945.69;;;6.44;85.98
69402;BME280;56589;51.992;5.924;2024-01-30T06:28:22;101934.38;;;6.45;85.50
69402;BME280;56589;51.992;5.924;2024-01-30T06:30:47;101928.19;;;6.47;85.54
69402;BME280;56589;51.992;5.924;2024-01-30T06:33:13;101936.88;;;6.48;85.56
69402;BME280;56589;51.992;5.924;2024-01-30T06:35:40;101928.16;;;6.49;85.48
69402;BME280;56589;51.992;5.924;2024-01-30T06:38:08;101939.47;;;6.49;85.51
69402;BME280;56589;51.992;5.924;2024-01-30T06:40:34;101937.72;;;6.50;85.56
69402;BME280;56589;51.992;5.924;2024-01-30T06:43:00;101940.25;;;6.51;85.96
69402;BME280;56589;51.992;5.924;2024-01-30T06:45:26;101941.97;;;6.52;85.70
69402;BME280;56589;51.992;5.924;2024-01-30T06:47:51;101943.66;;;6.55;85.69
69402;BME280;56589;51.992;5.924;2024-01-30T06:50:17;101940.94;;;6.58;86.11
69402;BME280;56589;51.992;5.924;2024-01-30T06:52:43;101941.72;;;6.62;85.88
69402;BME280;56589;51.992;5.924;2024-01-30T06:55:11;101935.47;;;6.67;86.01
69402;BME280;56589;51.992;5.924;2024-01-30T06:57:37;101934.47;;;6.71;86.39
69402;BME280;56589;51.992;5.924;2024-01-30T07:00:04;101937.84;;;6.75;86.10
69402;BME280;56589;51.992;5.924;2024-01-30T07:02:30;101943.81;;;6.78;86.11
69402;BME280;56589;51.992;5.924;2024-01-30T07:04:56;101935.91;;;6.81;86.32
69402;BME280;56589;51.992;5.924;2024-01-30T07:07:22;101941.00;;;6.86;86.20
69402;BME280;56589;51.992;5.924;2024-01-30T07:09:48;101940.09;;;6.87;85.88
69402;BME280;56589;51.992;5.924;2024-01-30T07:12:16;101938.22;;;6.91;85.71
69402;BME280;56589;51.992;5.924;2024-01-30T07:14:42;101945.13;;;6.93;85.87
69402;BME280;56589;51.992;5.924;2024-01-30T07:17:08;101950.25;;;6.96;86.02
69402;BME280;56589;51.992;5.924;2024-01-30T07:19:33;101951.06;;;6.98;85.79
69402;BME280;56589;51.992;5.924;2024-01-30T07:22:00;101951.88;;;7.00;85.84
69402;BME280;56589;51.992;5.924;2024-01-30T07:24:26;101959.59;;;7.03;85.56
69402;BME280;56589;51.992;5.924;2024-01-30T07:26:52;101951.75;;;7.03;85.59
69402;BME280;56589;51.992;5.924;2024-01-30T07:29:21;101966.44;;;7.07;85.81
69402;BME280;56589;51.992;5.924;2024-01-30T07:31:46;101964.59;;;7.11;85.92
69402;BME280;56589;51.992;5.924;2024-01-30T07:34:12;101964.53;;;7.13;86.18
69402;BME280;56589;51.992;5.924;2024-01-30T07:36:38;101967.03;;;7.16;86.06
69402;BME280;56589;51.992;5.924;2024-01-30T07:39:04;101968.69;;;7.20;85.96
69402;BME280;56589;51.992;5.924;2024-01-30T07:41:29;101963.41;;;7.21;85.69
69402;BME280;56589;51.992;5.924;2024-01-30T07:43:55;101962.41;;;7.25;86.09
69402;BME280;56589;51.992;5.924;2024-01-30T07:46:24;101970.09;;;7.30;85.97
69402;BME280;56589;51.992;5.924;2024-01-30T07:48:49;101968.28;;;7.32;85.80
69402;BME280;56589;51.992;5.924;2024-01-30T07:51:16;101976.03;;;7.37;86.09
69402;BME280;56589;51.992;5.924;2024-01-30T07:53:42;101975.06;;;7.39;85.88
69402;BME280;56589;51.992;5.924;2024-01-30T07:56:08;101953.16;;;7.43;86.01
69402;BME280;56589;51.992;5.924;2024-01-30T07:58:34;101974.88;;;7.45;85.86
69402;BME280;56589;51.992;5.924;2024-01-30T08:01:00;101985.19;;;7.50;85.69
69402;BME280;56589;51.992;5.924;2024-01-30T08:03:28;101985.13;;;7.51;85.60
69402;BME280;56589;51.992;5.924;2024-01-30T08:05:54;101991.97;;;7.55;85.78
69402;BME280;56589;51.992;5.924;2024-01-30T08:08:20;102001.44;;;7.59;85.96
69402;BME280;56589;51.992;5.924;2024-01-30T08:10:45;102002.22;;;7.61;86.01
69402;BME280;56589;51.992;5.924;2024-01-30T08:13:11;102002.13;;;7.65;85.83
69402;BME280;56589;51.992;5.924;2024-01-30T08:15:37;101998.50;;;7.69;85.79
69402;BME280;56589;51.992;5.924;2024-01-30T08:18:03;101996.53;;;7.75;85.71
69402;BME280;56589;51.992;5.924;2024-01-30T08:20:32;102002.47;;;7.80;85.68
69402;BME280;56589;51.992;5.924;2024-01-30T08:22:57;101998.03;;;7.84;86.21
69402;BME280;56589;51.992;5.924;2024-01-30T08:25:23;101999.53;;;7.91;86.02
69402;BME280;56589;51.992;5.924;2024-01-30T08:27:49;102009.78;;;7.97;85.69
69402;BME280;56589;51.992;5.924;2024-01-30T08:30:15;102008.72;;;8.03;85.77
69402;BME280;56589;51.992;5.924;2024-01-30T08:32:41;102005.91;;;8.07;85.88
69402;BME280;56589;51.992;5.924;2024-01-30T08:35:07;102003.16;;;8.12;85.80
69402;BME280;56589;51.992;5.924;2024-01-30T08:37:36;101998.63;;;8.17;85.44
69402;BME280;56589;51.992;5.924;2024-01-30T08:40:02;102000.19;;;8.23;85.52
69402;BME280;56589;51.992;5.924;2024-01-30T08:42:28;101993.03;;;8.28;85.68
69402;BME280;56589;51.992;5.924;2024-01-30T08:44:54;102004.13;;;8.34;85.44
69402;BME280;56589;51.992;5.924;2024-01-30T08:47:20;102002.22;;;8.39;85.30
69402;BME280;56589;51.992;5.924;2024-01-30T08:49:46;101995.09;;;8.43;85.09
69402;BME280;56589;51.992;5.924;2024-01-30T08:52:12;102000.16;;;8.48;85.02
69402;BME280;56589;51.992;5.924;2024-01-30T08:54:40;102002.63;;;8.52;85.09
69402;BME280;56589;51.992;5.924;2024-01-30T08:57:06;102005.91;;;8.57;84.80
69402;BME280;56589;51.992;5.924;2024-01-30T08:59:32;102005.88;;;8.59;84.72
69402;BME280;56589;51.992;5.924;2024-01-30T09:01:57;102003.06;;;8.63;85.05
69402;BME280;56589;51.992;5.924;2024-01-30T09:04:23;102009.97;;;8.66;84.96
69402;BME280;56589;51.992;5.924;2024-01-30T09:06:49;102004.59;;;8.69;84.61
69402;BME280;56589;51.992;5.924;2024-01-30T09:09:15;102003.66;;;8.72;84.58
69402;BME280;56589;51.992;5.924;2024-01-30T09:11:44;102002.63;;;8.76;84.46
69402;BME280;56589;51.992;5.924;2024-01-30T09:14:09;102001.59;;;8.80;84.39
69402;BME280;56589;51.992;5.924;2024-01-30T09:16:35;102009.22;;;8.86;84.46
69402;BME280;56589;51.992;5.924;2024-01-30T09:19:01;102009.91;;;8.91;84.26
69402;BME280;56589;51.992;5.924;2024-01-30T09:21:27;102012.47;;;8.92;84.44
69402;BME280;56589;51.992;5.924;2024-01-30T09:23:54;102013.31;;;8.93;84.00
69402;BME280;56589;51.992;5.924;2024-01-30T09:26:20;102008.06;;;8.94;84.14
69402;BME280;56589;51.992;5.924;2024-01-30T09:28:48;102012.31;;;8.97;83.94
69402;BME280;56589;51.992;5.924;2024-01-30T09:31:14;102012.19;;;9.00;84.22
69402;BME280;56589;51.992;5.924;2024-01-30T09:33:40;102014.69;;;9.03;84.32
69402;BME280;56589;51.992;5.924;2024-01-30T09:36:07;102010.22;;;9.07;84.09
69402;BME280;56589;51.992;5.924;2024-01-30T09:38:33;102018.78;;;9.10;83.99
69402;BME280;56589;51.992;5.924;2024-01-30T09:41:03;102019.47;;;9.15;83.83
69402;BME280;56589;51.992;5.924;2024-01-30T09:43:35;102015.88;;;9.18;84.07
69402;BME280;56589;51.992;5.924;2024-01-30T09:46:08;102019.31;;;9.20;83.69
69402;BME280;56589;51.992;5.924;2024-01-30T09:48:37;102033.13;;;9.25;84.01
69402;BME280;56589;51.992;5.924;2024-01-30T09:51:06;102023.28;;;9.30;83.76
69402;BME280;56589;51.992;5.924;2024-01-30T09:53:33;102033.72;;;9.32;83.40
69402;BME280;56589;51.992;5.924;2024-01-30T09:56:00;102025.72;;;9.35;83.79
69402;BME280;56589;51.992;5.924;2024-01-30T09:58:28;102024.78;;;9.37;83.35
69402;BME280;56589;51.992;5.924;2024-01-30T10:00:54;102021.19;;;9.40;83.48
69402;BME280;56589;51.992;5.924;2024-01-30T10:03:22;102031.53;;;9.43;83.56
69402;BME280;56589;51.992;5.924;2024-01-30T10:05:51;102022.78;;;9.44;83.44
69402;BME280;56589;51.992;5.924;2024-01-30T10:08:17;102027.09;;;9.45;83.17
69402;BME280;56589;51.992;5.924;2024-01-30T10:10:45;102026.16;;;9.46;83.42
69402;BME280;56589;51.992;5.924;2024-01-30T10:13:11;102030.31;;;9.52;83.61
69402;BME280;56589;51.992;5.924;2024-01-30T10:15:38;102030.16;;;9.56;83.20
69402;BME280;56589;51.992;5.924;2024-01-30T10:18:04;102033.41;;;9.61;83.57
69402;BME280;56589;51.992;5.924;2024-01-30T10:20:32;102031.47;;;9.66;83.66
69402;BME280;56589;51.992;5.924;2024-01-30T10:22:59;102040.84;;;9.72;83.14
69402;BME280;56589;51.992;5.924;2024-01-30T10:25:25;102034.66;;;9.74;83.47
69402;BME280;56589;51.992;5.924;2024-01-30T10:27:54;102035.28;;;9.80;82.94
69402;BME280;56589;51.992;5.924;2024-01-30T10:30:20;102030.00;;;9.81;82.86
69402;BME280;56589;51.992;5.924;2024-01-30T10:32:46;102035.25;;;9.81;82.98
69402;BME280;56589;51.992;5.924;2024-01-30T10:35:12;102037.81;;;9.83;83.07
69402;BME280;56589;51.992;5.924;2024-01-30T10:37:43;102038.59;;;9.85;82.85
69402;BME280;56589;51.992;5.924;2024-01-30T10:40:12;102029.88;;;9.84;82.95
69402;BME280;56589;51.992;5.924;2024-01-30T10:42:42;102032.38;;;9.87;82.95
69402;BME280;56589;51.992;5.924;2024-01-30T10:45:10;102026.28;;;9.87;82.63
69402;BME280;56589;51.992;5.924;2024-01-30T10:47:37;102016.56;;;9.89;82.95
69402;BME280;56589;51.992;5.924;2024-01-30T10:50:05;102026.03;;;9.93;82.97
69402;BME280;56589;51.992;5.924;2024-01-30T10:52:33;102019.88;;;9.94;82.66
69402;BME280;56589;51.992;5.924;2024-01-30T10:55:04;102026.75;;;9.96;82.68
69402;BME280;56589;51.992;5.924;2024-01-30T10:57:31;102021.38;;;9.99;82.81
69402;BME280;56589;51.992;5.924;2024-01-30T11:00:01;102022.00;;;10.04;82.50
69402;BME280;56589;51.992;5.924;2024-01-30T11:02:29;102032.31;;;10.09;82.27
69402;BME280;56589;51.992;5.924;2024-01-30T11:04:57;102032.13;;;10.14;82.36
69402;BME280;56589;51.992;5.924;2024-01-30T11:07:25;102038.97;;;10.18;82.47
69402;BME280;56589;51.992;5.924;2024-01-30T11:09:53;102042.31;;;10.21;82.46
69402;BME280;56589;51.992;5.924;2024-01-30T11:12:27;102023.81;;;10.24;82.03
69402;BME280;56589;51.992;5.924;2024-01-30T11:15:05;102027.28;;;10.25;82.27
69402;BME280;56589;51.992;5.924;2024-01-30T11:17:45;102029.78;;;10.28;82.29
69402;BME280;56589;51.992;5.924;2024-01-30T11:20:16;102039.09;;;10.35;82.04
69402;BME280;56589;51.992;5.924;2024-01-30T11:22:45;102030.91;;;10.43;81.98
69402;BME280;56589;51.992;5.924;2024-01-30T11:25:13;102032.25;;;10.51;81.99
69402;BME280;56589;51.992;5.924;2024-01-30T11:27:43;102038.94;;;10.58;81.92
69402;BME280;56589;51.992;5.924;2024-01-30T11:30:10;102037.69;;;10.67;81.97
69402;BME280;56589;51.992;5.924;2024-01-30T11:32:45;102033.16;;;10.71;81.27
69402;BME280;56589;51.992;5.924;2024-01-30T11:35:11;102034.00;;;10.71;81.55
69402;BME280;56589;51.992;5.924;2024-01-30T11:37:37;102026.97;;;10.72;81.59
69402;BME280;56589;51.992;5.924;2024-01-30T11:40:05;102032.22;;;10.72;81.32
69402;BME280;56589;51.992;5.924;2024-01-30T11:42:32;102026.06;;;10.73;81.19
69402;BME280;56589;51.992;5.924;2024-01-30T11:45:02;102018.97;;;10.75;80.86
69402;BME280;56589;51.992;5.924;2024-01-30T11:47:29;102038.06;;;10.78;81.00
69402;BME280;56589;51.992;5.924;2024-01-30T11:49:55;102033.59;;;10.80;80.62
69402;BME280;56589;51.992;5.924;2024-01-30T11:52:20;102033.34;;;10.87;80.80
69402;BME280;56589;51.992;5.924;2024-01-30T11:54:46;102037.47;;;10.92;80.76
69402;BME280;56589;51.992;5.924;2024-01-30T11:57:12;102029.25;;;11.00;80.45
69402;BME280;56589;51.992;5.924;2024-01-30T11:59:38;102027.06;;;11.09;80.39
69402;BME280;56589;51.992;5.924;2024-01-30T12:02:06;102035.44;;;11.18;80.43
69402;BME280;56589;51.992;5.924;2024-01-30T12:04:32;102038.47;;;11.27;80.18
69402;BME280;56589;51.992;5.924;2024-01-30T12:06:58;102032.22;;;11.30;79.58
69402;BME280;56589;51.992;5.924;2024-01-30T12:09:24;102034.00;;;11.29;79.02
69402;BME280;56589;51.992;5.924;2024-01-30T12:11:50;102034.84;;;11.30;78.79
69402;BME280;56589;51.992;5.924;2024-01-30T12:14:16;102037.56;;;11.28;79.02
69402;BME280;56589;51.992;5.924;2024-01-30T12:16:43;102035.78;;;11.29;78.98
69402;BME280;56589;51.992;5.924;2024-01-30T12:19:21;102031.28;;;11.31;78.38
69402;BME280;56589;51.992;5.924;2024-01-30T12:21:47;102031.50;;;11.26;78.40
69402;BME280;56589;51.992;5.924;2024-01-30T12:24:13;102029.03;;;11.23;78.35
69402;BME280;56589;51.992;5.924;2024-01-30T12:26:39;102034.38;;;11.22;78.14
69402;BME280;56589;51.992;5.924;2024-01-30T12:29:04;102041.38;;;11.21;78.42
69402;BME280;56589;51.992;5.924;2024-01-30T12:31:32;102034.22;;;11.25;78.46
69402;BME280;56589;51.992;5.924;2024-01-30T12:33:59;102040.75;;;11.35;78.42
69402;BME280;56589;51.992;5.924;2024-01-30T12:36:28;102044.59;;;11.47;78.25
69402;BME280;56589;51.992;5.924;2024-01-30T12:38:54;102044.91;;;11.58;77.88
69402;BME280;56589;51.992;5.924;2024-01-30T12:41:22;102055.84;;;11.68;77.17
69402;BME280;56589;51.992;5.924;2024-01-30T12:43:47;102061.66;;;11.74;75.18
69402;BME280;56589;51.992;5.924;2024-01-30T12:46:13;102081.44;;;11.64;75.25
69402;BME280;56589;51.992;5.924;2024-01-30T12:48:42;102082.25;;;11.47;75.11
69402;BME280;56589;51.992;5.924;2024-01-30T12:51:08;102079.34;;;11.34;74.78
69402;BME280;56589;51.992;5.924;2024-01-30T12:53:36;102089.41;;;11.25;75.58